Rabat, Morocco

5:34 AM WET on February 21, 2017 (GMT +0000)
Colegio Espanol de Rabat | | Change Station

Elev 167 ft 34.01 °N, 6.82 °W | Updated 4 minutes ago

Mostly Cloudy
Mostly Cloudy
56.4 °F
Feels Like 56.4 °F
N
0.0
Wind Variable Wind from SW
Gusts 0.0 mph

Today
High -- | Low -- °F
--% Chance of Precip.
Yesterday
High -- | Low -- °F
Precip. -- in
Pressure 29.86 in
Visibility 3.1 miles
Clouds Few 1300 ft
Mostly Cloudy 2000 ft
Mostly Cloudy 5000 ft
Dew Point 54 °F
Humidity 93%
Rainfall 0.00 in
Snow Depth Not available.
7:05 AM 6:16 PM
Waning Crescent, 28% visible
METAR GMME 210530Z 18003KT 110V230 5000 FEW013 BKN020 BKN050 14/12 Q1011 NOSIG
Pressure 29.86 in
Visibility 3.1 miles
Clouds Few 1300 ft
Mostly Cloudy 2000 ft
Mostly Cloudy 5000 ft
Dew Point 54 °F
Humidity 93%
Rainfall 0.00 in
Snow Depth Not available.
7:05 AM 6:16 PM
Waning Crescent, 28% visible
METAR GMME 210530Z 18003KT 110V230 5000 FEW013 BKN020 BKN050 14/12 Q1011 NOSIG

Get Your Daily Forecast Email!

Thanks for signing up!

Be on the lookout for a verification email in your inbox.

You'll start receiving the daily forecast at 8 AM.

×

10-Day Weather Forecast

No radar image for this location.
×

Almanac

Astronomy

Feb. 21, 2017 Rise Set
Actual Time
Civil Twilight
Nautical Twilight
Astronomical Twilight
Moon
Length of Visible Light
Length of Day
Tomorrow will be .
, % of the Moon is Illuminated

Today's Extremes

Country Highs Country Lows

Community

WunderPhotos

Upload Photos

1,962,540 photos uploaded!

WunderBlog® & News

Nearby

Air Quality

  Air Quality AQ Index Pollutant
Not available.

Snow Depth

Station Depth Elevation

Earthquake Activity

City Distance Mag. Time & Date
Minimum magnitude displayed is 2.5.

Coastal Water Temperatures

Place Temperature

Stations

Nearby Weather Stations

Station Location Temp. Windchill Dew Point Humidity Wind Precip. Elev Updated Type